createdAt,value
2022-08-25T00:00:10.361Z,19.90
2022-08-25T00:02:37.858Z,19.80
2022-08-25T00:05:05.572Z,19.80
2022-08-25T00:07:33.787Z,19.70
2022-08-25T00:10:00.468Z,19.70
2022-08-25T00:12:27.305Z,19.70
2022-08-25T00:14:55.094Z,19.70
2022-08-25T00:17:21.824Z,19.60
2022-08-25T00:19:51.609Z,19.60
2022-08-25T00:22:21.235Z,19.60
2022-08-25T00:24:47.957Z,19.60
2022-08-25T00:27:14.785Z,19.50
2022-08-25T00:29:41.581Z,19.50
2022-08-25T00:32:08.332Z,19.50
2022-08-25T00:34:38.339Z,19.40
2022-08-25T00:37:09.415Z,19.40
2022-08-25T00:39:58.559Z,19.50
2022-08-25T00:42:26.872Z,19.40
2022-08-25T00:44:54.040Z,19.50
2022-08-25T00:47:20.819Z,19.50
2022-08-25T00:49:54.584Z,19.50
2022-08-25T00:52:27.135Z,19.50
2022-08-25T00:55:07.812Z,19.50
2022-08-25T00:57:43.220Z,19.50
2022-08-25T01:00:21.821Z,19.50
2022-08-25T01:02:48.752Z,19.40
2022-08-25T01:05:15.562Z,19.40
2022-08-25T01:07:44.712Z,19.40
2022-08-25T01:10:13.424Z,19.50
2022-08-25T01:12:44.263Z,19.60
2022-08-25T01:15:13.177Z,19.60
2022-08-25T01:17:48.276Z,19.70
2022-08-25T01:20:16.511Z,19.70
2022-08-25T01:22:46.018Z,19.70
2022-08-25T01:25:35.686Z,19.60
2022-08-25T01:28:03.387Z,19.60
2022-08-25T01:30:30.247Z,19.60
2022-08-25T01:33:04.047Z,19.60
2022-08-25T01:35:30.964Z,19.60
2022-08-25T01:37:57.655Z,19.60
2022-08-25T01:40:24.705Z,19.60
2022-08-25T01:43:06.799Z,19.50
2022-08-25T01:45:37.401Z,19.60
2022-08-25T01:48:05.283Z,19.60
2022-08-25T01:50:32.515Z,19.50
2022-08-25T01:53:33.313Z,19.50
2022-08-25T01:56:15.182Z,19.50
2022-08-25T01:58:46.281Z,19.40
2022-08-25T02:01:17.460Z,19.40
2022-08-25T02:03:46.569Z,19.40
2022-08-25T02:06:19.528Z,19.30
2022-08-25T02:08:50.014Z,19.20
2022-08-25T02:11:16.720Z,19.20
2022-08-25T02:13:43.547Z,19.20
2022-08-25T02:16:14.690Z,19.30
2022-08-25T02:18:41.480Z,19.20
2022-08-25T02:21:08.498Z,19.20
2022-08-25T02:23:36.047Z,19.20
2022-08-25T02:26:05.578Z,19.10
2022-08-25T02:28:32.266Z,19.10
2022-08-25T02:31:01.767Z,19.00
2022-08-25T02:33:28.743Z,19.00
2022-08-25T02:35:59.364Z,18.90
2022-08-25T02:38:28.004Z,18.80
2022-08-25T02:40:59.091Z,18.70
2022-08-25T02:43:27.765Z,18.60
2022-08-25T02:45:56.239Z,18.60
2022-08-25T02:48:23.406Z,18.50
2022-08-25T02:50:52.530Z,18.40
2022-08-25T02:53:20.825Z,18.40
2022-08-25T02:55:47.644Z,18.40
2022-08-25T02:58:15.343Z,18.40
2022-08-25T03:00:42.613Z,18.40
2022-08-25T03:03:09.974Z,18.40
2022-08-25T03:05:36.780Z,18.40
2022-08-25T03:08:04.749Z,18.40
2022-08-25T03:10:32.295Z,18.40
2022-08-25T03:12:59.233Z,18.30
2022-08-25T03:15:30.582Z,18.30
2022-08-25T03:17:59.997Z,18.30
2022-08-25T03:20:27.903Z,18.30
2022-08-25T03:22:56.952Z,18.20
2022-08-25T03:25:44.670Z,18.20
2022-08-25T03:28:11.694Z,18.20
2022-08-25T03:30:38.483Z,18.20
2022-08-25T03:33:05.250Z,18.10
2022-08-25T03:35:35.175Z,18.10
2022-08-25T03:38:02.295Z,18.10
2022-08-25T03:40:29.270Z,18.20
2022-08-25T03:42:59.033Z,18.20
2022-08-25T03:45:25.864Z,18.20
2022-08-25T03:47:54.156Z,18.20
2022-08-25T03:50:23.164Z,18.20
2022-08-25T03:53:07.817Z,18.20
2022-08-25T03:55:37.590Z,18.20
2022-08-25T03:58:04.452Z,18.20
2022-08-25T04:00:31.506Z,18.20
2022-08-25T04:02:58.730Z,18.30
2022-08-25T04:05:26.750Z,18.30
2022-08-25T04:07:53.575Z,18.40
2022-08-25T04:10:20.511Z,18.40
2022-08-25T04:12:49.282Z,18.40
2022-08-25T04:15:19.209Z,18.40
2022-08-25T04:17:45.948Z,18.40
2022-08-25T04:20:14.145Z,18.50
2022-08-25T04:22:41.480Z,18.50
2022-08-25T04:25:14.908Z,18.50
2022-08-25T04:27:42.064Z,18.50
2022-08-25T04:30:09.914Z,18.60
2022-08-25T04:32:44.632Z,18.60
2022-08-25T04:35:11.402Z,18.60
2022-08-25T04:37:38.111Z,18.70
2022-08-25T04:40:05.813Z,18.70
2022-08-25T04:42:37.576Z,18.70
2022-08-25T04:45:05.759Z,18.70
2022-08-25T04:47:37.773Z,18.60
2022-08-25T04:50:06.789Z,18.60
2022-08-25T04:52:33.924Z,18.50
2022-08-25T04:55:06.723Z,18.50
2022-08-25T04:57:35.612Z,18.50
2022-08-25T05:00:02.787Z,18.50
2022-08-25T05:02:29.631Z,18.50
2022-08-25T05:04:56.464Z,18.60
2022-08-25T05:07:23.264Z,18.60
2022-08-25T05:09:53.080Z,18.60
2022-08-25T05:12:22.971Z,18.60
2022-08-25T05:14:52.916Z,18.70
2022-08-25T05:17:22.796Z,18.70
2022-08-25T05:19:49.581Z,18.80
2022-08-25T05:22:16.298Z,18.80
2022-08-25T05:24:43.113Z,18.90
2022-08-25T05:27:10.286Z,18.90
2022-08-25T05:29:37.032Z,19.00
2022-08-25T05:32:04.080Z,19.10
2022-08-25T05:34:31.060Z,19.20
2022-08-25T05:37:00.225Z,19.20
2022-08-25T05:39:27.177Z,19.30
2022-08-25T05:41:54.019Z,19.40
2022-08-25T05:44:23.562Z,19.50
2022-08-25T05:46:51.118Z,19.50
2022-08-25T05:49:18.007Z,19.70
2022-08-25T05:51:44.723Z,19.80
2022-08-25T05:54:11.512Z,20.00
2022-08-25T05:56:38.279Z,20.00
2022-08-25T05:59:09.135Z,20.10
2022-08-25T06:01:54.853Z,20.20
2022-08-25T06:04:24.505Z,20.30
2022-08-25T06:06:53.903Z,20.50
2022-08-25T06:09:24.273Z,20.70
2022-08-25T06:11:55.228Z,21.40
2022-08-25T06:14:23.937Z,22.20
2022-08-25T06:16:51.664Z,22.90
2022-08-25T06:19:18.825Z,23.70
2022-08-25T06:21:45.550Z,24.30
2022-08-25T06:24:16.028Z,24.90
2022-08-25T06:26:44.115Z,25.50
2022-08-25T06:29:10.990Z,25.90
2022-08-25T06:31:37.857Z,26.30
2022-08-25T06:34:04.726Z,26.60
2022-08-25T06:36:32.389Z,27.00
2022-08-25T06:38:59.097Z,27.30
2022-08-25T06:41:33.738Z,27.60
2022-08-25T06:44:05.668Z,27.90
2022-08-25T06:46:36.376Z,27.70
2022-08-25T06:49:05.722Z,27.80
2022-08-25T06:51:32.968Z,27.80
2022-08-25T06:54:00.564Z,27.50
2022-08-25T06:56:27.346Z,27.10
2022-08-25T06:58:54.081Z,27.20
2022-08-25T07:01:26.244Z,27.40
2022-08-25T07:03:59.551Z,27.50
2022-08-25T07:06:31.918Z,26.90
2022-08-25T07:08:59.323Z,26.20
2022-08-25T07:11:26.497Z,25.80
2022-08-25T07:13:53.483Z,25.80
2022-08-25T07:16:21.049Z,26.10
2022-08-25T07:18:48.279Z,26.50
2022-08-25T07:21:15.533Z,26.60
2022-08-25T07:23:42.443Z,26.70
2022-08-25T07:26:35.702Z,27.20
2022-08-25T07:29:06.981Z,27.50
2022-08-25T07:31:34.438Z,27.80
2022-08-25T07:34:19.613Z,28.00
2022-08-25T07:36:46.993Z,28.10
2022-08-25T07:39:13.713Z,28.40
2022-08-25T07:41:41.663Z,28.70
2022-08-25T07:44:10.931Z,29.00
2022-08-25T07:46:37.834Z,29.20
2022-08-25T07:49:05.338Z,29.10
2022-08-25T07:52:04.204Z,29.00
2022-08-25T07:54:33.998Z,29.40
2022-08-25T07:57:03.320Z,29.60
2022-08-25T07:59:30.964Z,29.70
2022-08-25T08:02:18.286Z,29.30
2022-08-25T08:04:50.773Z,29.10
2022-08-25T08:07:24.030Z,29.10
2022-08-25T08:10:42.181Z,29.10
2022-08-25T08:12:58.851Z,29.70
2022-08-25T08:15:35.170Z,30.20
2022-08-25T08:18:03.128Z,30.20
2022-08-25T08:20:42.368Z,30.20
2022-08-25T08:23:09.717Z,30.00
2022-08-25T08:25:36.458Z,29.90
2022-08-25T08:28:03.920Z,30.10
2022-08-25T08:30:36.451Z,30.30
2022-08-25T08:33:12.965Z,30.00
2022-08-25T08:35:41.067Z,30.40
2022-08-25T08:38:15.964Z,30.50
2022-08-25T08:41:22.887Z,30.80
2022-08-25T08:43:56.380Z,31.10
2022-08-25T08:46:25.917Z,31.10
2022-08-25T08:49:10.224Z,31.00
2022-08-25T08:51:51.238Z,31.30
2022-08-25T08:54:25.029Z,31.20
2022-08-25T08:57:05.896Z,31.20
2022-08-25T08:59:42.156Z,31.20
2022-08-25T09:02:16.514Z,31.20
2022-08-25T09:05:08.542Z,30.40
2022-08-25T09:07:48.309Z,30.20
2022-08-25T09:10:19.390Z,30.00
2022-08-25T09:12:58.836Z,30.20
2022-08-25T09:15:55.270Z,30.30
2022-08-25T09:18:50.849Z,30.70
2022-08-25T09:21:57.936Z,31.00
2022-08-25T09:24:37.574Z,30.00
2022-08-25T09:27:22.455Z,30.10
2022-08-25T09:30:19.172Z,29.30
2022-08-25T09:33:05.125Z,28.90
2022-08-25T09:35:35.719Z,29.00
2022-08-25T09:38:05.724Z,29.30
2022-08-25T09:40:35.906Z,29.80
2022-08-25T09:43:05.719Z,29.90
2022-08-25T09:45:43.460Z,29.90
2022-08-25T09:48:41.035Z,29.90
2022-08-25T09:51:20.182Z,29.60
2022-08-25T09:54:18.285Z,29.60
2022-08-25T09:56:56.780Z,29.90
2022-08-25T09:59:34.156Z,30.10
2022-08-25T10:02:28.643Z,30.00
2022-08-25T10:04:57.166Z,30.50
2022-08-25T10:07:48.128Z,30.10
2022-08-25T10:10:29.041Z,30.40
2022-08-25T10:13:01.730Z,30.50
2022-08-25T10:15:35.820Z,30.50
2022-08-25T10:18:26.259Z,29.80
2022-08-25T10:21:07.503Z,29.60
2022-08-25T10:23:43.439Z,29.90
2022-08-25T10:26:34.666Z,30.30
2022-08-25T10:29:09.909Z,31.00
2022-08-25T10:31:47.470Z,30.80
2022-08-25T10:34:44.365Z,31.00
2022-08-25T10:37:23.536Z,31.20
2022-08-25T10:40:22.813Z,31.20
2022-08-25T10:43:07.708Z,31.50
2022-08-25T10:46:02.780Z,31.40
2022-08-25T10:48:41.484Z,31.30
2022-08-25T10:51:50.948Z,31.60
2022-08-25T10:54:48.100Z,32.10
2022-08-25T10:57:21.314Z,31.80
2022-08-25T10:59:58.328Z,32.10
2022-08-25T11:03:08.232Z,32.30
2022-08-25T11:05:57.791Z,32.50
2022-08-25T11:08:42.309Z,33.00
2022-08-25T11:11:21.744Z,33.00
2022-08-25T11:13:58.868Z,32.30
2022-08-25T11:16:40.783Z,31.20
2022-08-25T11:19:30.807Z,31.30
2022-08-25T11:22:19.213Z,31.70
2022-08-25T11:25:09.308Z,31.60
2022-08-25T11:28:03.191Z,31.50
2022-08-25T11:30:30.595Z,30.90
2022-08-25T11:32:58.347Z,31.20
2022-08-25T11:35:41.460Z,31.50
2022-08-25T11:38:18.183Z,31.50
2022-08-25T11:41:11.042Z,31.20
2022-08-25T11:44:08.055Z,30.70
2022-08-25T11:46:47.772Z,30.80
2022-08-25T11:49:42.264Z,31.60
2022-08-25T11:52:34.992Z,31.00
2022-08-25T11:55:08.001Z,31.50
2022-08-25T11:57:37.601Z,31.50
2022-08-25T12:00:41.111Z,31.50
2022-08-25T12:03:33.973Z,30.90
2022-08-25T12:06:33.391Z,30.70
2022-08-25T12:09:02.493Z,30.70
2022-08-25T12:11:38.301Z,30.80
2022-08-25T12:14:16.382Z,30.90
2022-08-25T12:16:52.053Z,30.80
2022-08-25T12:19:48.633Z,31.20
2022-08-25T12:22:15.941Z,31.90
2022-08-25T12:24:49.973Z,32.90
2022-08-25T12:27:25.291Z,33.40
2022-08-25T12:30:22.121Z,33.60
2022-08-25T12:33:07.086Z,33.60
2022-08-25T12:35:53.288Z,33.90
2022-08-25T12:38:35.079Z,33.90
2022-08-25T12:41:18.528Z,32.70
2022-08-25T12:43:48.126Z,31.90
2022-08-25T12:46:27.525Z,31.50
2022-08-25T12:49:29.951Z,31.80
2022-08-25T12:52:04.759Z,32.00
2022-08-25T12:54:57.538Z,32.60
2022-08-25T12:57:57.740Z,33.50
2022-08-25T13:03:12.342Z,34.90
2022-08-25T13:05:46.197Z,34.90
2022-08-25T13:08:27.884Z,34.60
2022-08-25T13:11:35.203Z,33.60
2022-08-25T13:14:19.807Z,33.40
2022-08-25T13:16:57.811Z,33.40
2022-08-25T13:19:25.761Z,34.20
2022-08-25T13:21:54.723Z,34.90
2022-08-25T13:24:25.606Z,34.70
2022-08-25T13:26:59.534Z,35.20
2022-08-25T13:29:36.982Z,36.20
2022-08-25T13:32:17.567Z,37.00
2022-08-25T13:34:44.512Z,36.90
2022-08-25T13:37:27.727Z,37.30
2022-08-25T13:40:17.800Z,37.20
2022-08-25T13:42:54.406Z,37.90
2022-08-25T13:45:28.676Z,37.40
2022-08-25T13:47:59.183Z,36.90
2022-08-25T13:50:26.481Z,36.80
2022-08-25T13:52:59.969Z,36.70
2022-08-25T13:55:50.821Z,36.70
2022-08-25T13:58:39.113Z,36.90
2022-08-25T14:01:49.116Z,36.90
2022-08-25T14:04:33.476Z,35.80
2022-08-25T14:07:25.934Z,36.60
2022-08-25T14:09:55.573Z,37.30
2022-08-25T14:12:40.057Z,37.30
2022-08-25T14:15:15.476Z,36.00
2022-08-25T14:20:25.615Z,35.60
2022-08-25T14:22:56.510Z,35.10
2022-08-25T14:25:27.567Z,35.10
2022-08-25T14:28:06.839Z,36.00
2022-08-25T14:30:49.403Z,35.90
2022-08-25T14:33:23.861Z,35.90
2022-08-25T14:35:54.462Z,35.90
2022-08-25T14:38:25.368Z,36.80
2022-08-25T14:40:53.426Z,37.50
2022-08-25T14:43:21.008Z,38.10
2022-08-25T14:45:51.330Z,37.40
2022-08-25T14:48:29.166Z,37.40
2022-08-25T14:50:58.657Z,37.70
2022-08-25T14:53:30.112Z,37.70
2022-08-25T14:55:59.015Z,37.80
2022-08-25T14:58:28.025Z,38.30
2022-08-25T15:01:01.000Z,38.30
2022-08-25T15:03:34.243Z,38.30
2022-08-25T15:06:02.317Z,37.80
2022-08-25T15:08:50.090Z,36.80
2022-08-25T15:11:17.488Z,36.60
2022-08-25T15:13:49.337Z,35.30
2022-08-25T15:16:23.749Z,34.80
2022-08-25T15:19:01.046Z,35.40
2022-08-25T15:21:32.391Z,36.10
2022-08-25T15:24:04.836Z,36.90
2022-08-25T15:26:33.742Z,38.00
2022-08-25T15:29:00.453Z,38.90
2022-08-25T15:31:27.232Z,38.70
2022-08-25T15:33:56.745Z,39.60
2022-08-25T15:36:26.168Z,40.00
2022-08-25T15:38:53.242Z,40.00
2022-08-25T15:41:27.941Z,39.50
2022-08-25T15:44:01.614Z,38.80
2022-08-25T15:46:30.352Z,36.90
2022-08-25T15:48:59.388Z,37.80
2022-08-25T15:51:28.413Z,38.20
2022-08-25T15:53:56.553Z,38.00
2022-08-25T15:56:26.750Z,36.60
2022-08-25T15:58:55.407Z,36.50
2022-08-25T16:01:25.455Z,35.60
2022-08-25T16:03:55.492Z,34.70
2022-08-25T16:06:22.231Z,33.80
2022-08-25T16:08:49.014Z,33.80
2022-08-25T16:11:19.732Z,33.60
2022-08-25T16:13:48.948Z,33.10
2022-08-25T16:16:18.271Z,33.10
2022-08-25T16:18:45.709Z,33.20
2022-08-25T16:21:16.000Z,32.70
2022-08-25T16:23:43.173Z,32.80
2022-08-25T16:26:11.115Z,32.90
2022-08-25T16:28:43.840Z,32.50
2022-08-25T16:31:12.823Z,32.00
2022-08-25T16:36:15.591Z,31.50
2022-08-25T16:38:48.992Z,31.20
2022-08-25T16:41:22.336Z,31.10
2022-08-25T16:43:50.171Z,30.80
2022-08-25T16:46:21.104Z,30.70
2022-08-25T16:48:48.667Z,30.60
2022-08-25T16:51:19.391Z,30.40
2022-08-25T16:54:15.982Z,30.30
2022-08-25T16:56:53.711Z,30.30
2022-08-25T16:59:23.471Z,30.20
2022-08-25T17:01:50.802Z,30.10
2022-08-25T17:04:17.726Z,30.00
2022-08-25T17:06:51.572Z,30.10
2022-08-25T17:09:23.939Z,30.00
2022-08-25T17:11:54.196Z,29.90
2022-08-25T17:14:24.513Z,29.80
2022-08-25T17:16:54.628Z,29.70
2022-08-25T17:19:23.781Z,29.60
2022-08-25T17:21:51.296Z,29.40
2022-08-25T17:24:21.019Z,29.20
2022-08-25T17:26:50.830Z,29.10
2022-08-25T17:29:18.487Z,28.90
2022-08-25T17:31:48.358Z,28.70
2022-08-25T17:34:16.862Z,28.50
2022-08-25T17:36:48.128Z,28.40
2022-08-25T17:39:22.247Z,28.30
2022-08-25T17:41:49.685Z,28.20
2022-08-25T17:44:16.919Z,28.10
2022-08-25T17:46:47.154Z,27.90
2022-08-25T17:49:17.833Z,27.80
2022-08-25T17:51:45.502Z,27.70
2022-08-25T17:54:12.808Z,27.50
2022-08-25T17:56:42.478Z,27.40
2022-08-25T17:59:09.906Z,27.40
2022-08-25T18:01:40.331Z,27.30
2022-08-25T18:04:16.988Z,27.20
2022-08-25T18:06:45.568Z,27.10
2022-08-25T18:09:16.516Z,27.00
2022-08-25T18:11:44.624Z,26.80
2022-08-25T18:14:11.834Z,26.60
2022-08-25T18:16:38.831Z,26.40
2022-08-25T18:19:06.577Z,26.20
2022-08-25T18:21:37.441Z,26.10
2022-08-25T18:24:08.023Z,26.00
2022-08-25T18:26:35.388Z,26.00
2022-08-25T18:29:06.440Z,25.90
2022-08-25T18:31:33.290Z,25.90
2022-08-25T18:34:00.190Z,25.70
2022-08-25T18:36:27.373Z,25.60
2022-08-25T18:39:13.948Z,25.50
2022-08-25T18:41:42.532Z,25.40
2022-08-25T18:44:10.515Z,25.20
2022-08-25T18:46:42.097Z,25.00
2022-08-25T18:49:08.970Z,24.90
2022-08-25T18:51:36.513Z,24.80
2022-08-25T18:54:04.451Z,24.60
2022-08-25T18:56:31.385Z,24.50
2022-08-25T18:58:58.691Z,24.40
2022-08-25T19:01:25.661Z,24.30
2022-08-25T19:03:52.545Z,24.30
2022-08-25T19:06:20.744Z,24.30
2022-08-25T19:08:50.441Z,24.40
2022-08-25T19:11:22.305Z,24.40
2022-08-25T19:13:49.691Z,24.40
2022-08-25T19:16:29.955Z,24.50
2022-08-25T19:18:56.922Z,24.50
2022-08-25T19:21:25.285Z,24.50
2022-08-25T19:23:53.020Z,24.50
2022-08-25T19:26:20.973Z,24.30
2022-08-25T19:28:49.342Z,24.20
2022-08-25T19:31:21.647Z,24.10
2022-08-25T19:33:53.308Z,24.00
2022-08-25T19:36:23.937Z,23.90
2022-08-25T19:38:58.544Z,23.70
2022-08-25T19:41:27.772Z,23.60
2022-08-25T19:43:57.229Z,23.60
2022-08-25T19:46:33.082Z,23.60
2022-08-25T19:49:09.342Z,23.60
2022-08-25T19:51:51.051Z,23.50
2022-08-25T19:54:22.499Z,23.30
2022-08-25T19:56:55.240Z,23.30
2022-08-25T19:59:42.349Z,23.30
2022-08-25T20:02:15.792Z,23.20
2022-08-25T20:04:50.770Z,23.10
2022-08-25T20:07:22.757Z,23.10
2022-08-25T20:09:52.683Z,23.20
2022-08-25T20:12:21.546Z,23.30
2022-08-25T20:14:50.361Z,23.30
2022-08-25T20:17:23.643Z,23.30
2022-08-25T20:19:54.266Z,23.30
2022-08-25T20:22:25.397Z,23.40
2022-08-25T20:24:56.232Z,23.50
2022-08-25T20:27:46.639Z,23.60
2022-08-25T20:30:29.173Z,23.50
2022-08-25T20:32:58.142Z,23.40
2022-08-25T20:35:27.150Z,23.30
2022-08-25T20:37:56.167Z,23.10
2022-08-25T20:40:25.661Z,23.00
2022-08-25T20:42:53.361Z,22.90
2022-08-25T20:45:23.387Z,22.70
2022-08-25T20:47:50.687Z,22.60
2022-08-25T20:50:18.845Z,22.50
2022-08-25T20:52:45.683Z,22.50
2022-08-25T20:55:12.554Z,22.50
2022-08-25T20:57:39.440Z,22.40
2022-08-25T21:00:07.928Z,22.30
2022-08-25T21:02:35.284Z,22.20
2022-08-25T21:05:03.197Z,22.30
2022-08-25T21:07:30.085Z,22.20
2022-08-25T21:09:57.467Z,22.20
2022-08-25T21:12:24.541Z,22.10
2022-08-25T21:14:51.864Z,22.10
2022-08-25T21:17:19.597Z,22.00
2022-08-25T21:22:19.412Z,22.00
2022-08-25T21:24:46.189Z,22.00
2022-08-25T21:27:13.299Z,21.90
2022-08-25T21:29:44.663Z,21.90
2022-08-25T21:32:18.969Z,21.90
2022-08-25T21:34:45.973Z,21.80
2022-08-25T21:37:14.145Z,21.80
2022-08-25T21:39:43.993Z,21.70
2022-08-25T21:44:43.506Z,21.60
2022-08-25T21:47:10.822Z,21.60
2022-08-25T21:49:37.817Z,21.60
2022-08-25T21:52:07.508Z,21.50
2022-08-25T21:54:34.375Z,21.50
2022-08-25T21:57:04.064Z,21.40
2022-08-25T21:59:36.494Z,21.40
2022-08-25T22:02:08.023Z,21.40
2022-08-25T22:04:38.931Z,21.40
2022-08-25T22:07:06.327Z,21.30
2022-08-25T22:09:33.280Z,21.30
2022-08-25T22:11:59.962Z,21.30
2022-08-25T22:14:27.461Z,21.30
2022-08-25T22:16:55.180Z,21.20
2022-08-25T22:19:22.820Z,21.30
2022-08-25T22:21:50.969Z,21.40
2022-08-25T22:24:21.572Z,21.40
2022-08-25T22:26:49.275Z,21.50
2022-08-25T22:29:24.943Z,21.50
2022-08-25T22:31:58.627Z,21.50
2022-08-25T22:34:34.316Z,21.40
2022-08-25T22:37:03.567Z,21.40
2022-08-25T22:39:31.325Z,21.40
2022-08-25T22:41:58.860Z,21.30
